createdAt,value
2023-02-27T00:00:41.929Z,9.719495
2023-02-27T00:01:42.924Z,9.719462
2023-02-27T00:02:42.004Z,9.719543
2023-02-27T00:03:41.945Z,9.719677
2023-02-27T00:04:41.897Z,9.719559
2023-02-27T00:05:41.892Z,9.719430
2023-02-27T00:06:41.883Z,9.719479
2023-02-27T00:07:41.897Z,9.719616
2023-02-27T00:08:41.895Z,9.719520
2023-02-27T00:09:41.868Z,9.719597
2023-02-27T00:10:41.852Z,9.719613
2023-02-27T00:11:41.822Z,9.719652
2023-02-27T00:12:41.840Z,9.719648
2023-02-27T00:13:41.815Z,9.719708
2023-02-27T00:14:41.813Z,9.719687
2023-02-27T00:15:41.915Z,9.719573
2023-02-27T00:16:41.793Z,9.719525
2023-02-27T00:17:41.770Z,9.719613
2023-02-27T00:18:41.795Z,9.719543
2023-02-27T00:19:41.789Z,9.719553
2023-02-27T00:20:41.737Z,9.719501
2023-02-27T00:21:41.769Z,9.719607
2023-02-27T00:22:41.819Z,9.719530
2023-02-27T00:23:41.717Z,9.719564
2023-02-27T00:24:41.738Z,9.719485
2023-02-27T00:25:41.712Z,9.719558
2023-02-27T00:26:41.694Z,9.719610
2023-02-27T00:27:41.709Z,9.719501
2023-02-27T00:28:41.678Z,9.719549
2023-02-27T00:29:41.659Z,9.719278
2023-02-27T00:30:41.683Z,9.719570
2023-02-27T00:31:41.668Z,9.719500
2023-02-27T00:32:41.642Z,9.719534
2023-02-27T00:33:41.651Z,9.719438
2023-02-27T00:34:41.607Z,9.719547
2023-02-27T00:35:41.605Z,9.719365
2023-02-27T00:36:41.588Z,9.719334
2023-02-27T00:37:41.593Z,9.719484
2023-02-27T00:38:41.593Z,9.719423
2023-02-27T00:39:41.562Z,9.719357
2023-02-27T00:40:41.567Z,9.719492
2023-02-27T00:41:41.550Z,9.719528
2023-02-27T00:42:41.568Z,9.719384
2023-02-27T00:43:41.538Z,9.719510
2023-02-27T00:44:41.528Z,9.719680
2023-02-27T00:45:41.518Z,9.719709
2023-02-27T00:46:41.543Z,9.719626
2023-02-27T00:47:41.509Z,9.719462
2023-02-27T00:48:41.493Z,9.719427
2023-02-27T00:49:41.504Z,9.719354
2023-02-27T00:50:41.465Z,9.719316
2023-02-27T00:51:41.457Z,9.719337
2023-02-27T00:52:41.438Z,9.719546
2023-02-27T00:53:41.434Z,9.719474
2023-02-27T00:54:41.437Z,9.719476
2023-02-27T00:55:41.449Z,9.719476
2023-02-27T00:56:41.412Z,9.719414
2023-02-27T00:57:41.439Z,9.719419
2023-02-27T00:58:41.391Z,9.719469
2023-02-27T00:59:41.399Z,9.719394
2023-02-27T01:00:41.408Z,9.719359
2023-02-27T01:01:41.358Z,9.719390
2023-02-27T01:02:41.470Z,9.719290
2023-02-27T01:03:41.349Z,9.719315
2023-02-27T01:04:41.359Z,9.719243
2023-02-27T01:05:41.341Z,9.719357
2023-02-27T01:06:41.312Z,9.719359
2023-02-27T01:07:41.322Z,9.719369
2023-02-27T01:08:41.285Z,9.719230
2023-02-27T01:09:41.286Z,9.719267
2023-02-27T01:10:41.280Z,9.719479
2023-02-27T01:11:41.276Z,9.719328
2023-02-27T01:12:41.323Z,9.719344
2023-02-27T01:13:41.246Z,9.719348
2023-02-27T01:14:41.244Z,9.719312
2023-02-27T01:15:41.227Z,9.719322
2023-02-27T01:16:41.217Z,9.719319
2023-02-27T01:17:41.211Z,9.719128
2023-02-27T01:18:41.223Z,9.719293
2023-02-27T01:19:41.190Z,9.719687
2023-02-27T01:20:41.175Z,9.719490
2023-02-27T01:21:41.177Z,9.719166
2023-02-27T01:22:41.162Z,9.718862
2023-02-27T01:23:41.175Z,9.719082
2023-02-27T01:24:41.203Z,9.719108
2023-02-27T01:25:41.150Z,9.719382
2023-02-27T01:26:41.130Z,9.719205
2023-02-27T01:27:41.114Z,9.719184
2023-02-27T01:28:41.101Z,9.719366
2023-02-27T01:29:41.119Z,9.719457
2023-02-27T01:30:41.115Z,9.719458
2023-02-27T01:31:41.131Z,9.719400
2023-02-27T01:32:41.149Z,9.719427
2023-02-27T01:33:41.052Z,9.719368
2023-02-27T01:34:41.069Z,9.719461
2023-02-27T01:35:41.049Z,9.719432
2023-02-27T01:36:41.036Z,9.719490
2023-02-27T01:37:41.003Z,9.719509
2023-02-27T01:38:41.033Z,9.719445
2023-02-27T01:39:41.004Z,9.719399
2023-02-27T01:40:41.005Z,9.719310
2023-02-27T01:41:40.984Z,9.719320
2023-02-27T01:42:40.969Z,9.719344
2023-02-27T01:43:40.972Z,9.719315
2023-02-27T01:44:40.945Z,9.719296
2023-02-27T01:45:40.945Z,9.719347
2023-02-27T01:46:40.938Z,9.719279
2023-02-27T01:47:40.921Z,9.719282
2023-02-27T01:48:40.932Z,9.719158
2023-02-27T01:49:40.903Z,9.719201
2023-02-27T01:50:40.889Z,9.719083
2023-02-27T01:51:40.865Z,9.719414
2023-02-27T01:52:40.862Z,9.719294
2023-02-27T01:53:40.876Z,9.719176
2023-02-27T01:54:40.860Z,9.719129
2023-02-27T01:55:40.841Z,9.719380
2023-02-27T01:56:40.843Z,9.719370
2023-02-27T01:57:40.852Z,9.719357
2023-02-27T01:58:41.830Z,9.719316
2023-02-27T01:59:40.810Z,9.719584
2023-02-27T02:00:40.811Z,9.719328
2023-02-27T02:01:40.797Z,9.719284
2023-02-27T02:02:40.789Z,9.719405
2023-02-27T02:03:40.767Z,9.719586
2023-02-27T02:04:40.750Z,9.719441
2023-02-27T02:05:40.745Z,9.719601
2023-02-27T02:06:40.750Z,9.719554
2023-02-27T02:07:40.748Z,9.719541
2023-02-27T02:08:40.727Z,9.719332
2023-02-27T02:09:40.711Z,9.719454
2023-02-27T02:10:40.699Z,9.719584
2023-02-27T02:11:40.694Z,9.719494
2023-02-27T02:12:40.700Z,9.719526
2023-02-27T02:13:40.687Z,9.719447
2023-02-27T02:14:40.659Z,9.719478
2023-02-27T02:15:40.654Z,9.719482
2023-02-27T02:16:40.734Z,9.719496
2023-02-27T02:17:40.664Z,9.719497
2023-02-27T02:18:40.626Z,9.719519
2023-02-27T02:19:40.620Z,9.719423
2023-02-27T02:20:40.614Z,9.719386
2023-02-27T02:21:40.600Z,9.719449
2023-02-27T02:22:40.609Z,9.719305
2023-02-27T02:23:40.585Z,9.719440
2023-02-27T02:24:40.558Z,9.719488
2023-02-27T02:25:40.554Z,9.719407
2023-02-27T02:26:40.555Z,9.719382
2023-02-27T02:27:40.563Z,9.719258
2023-02-27T02:28:40.543Z,9.719361
2023-02-27T02:29:40.541Z,9.719295
2023-02-27T02:30:40.600Z,9.719237
2023-02-27T02:31:40.617Z,9.719245
2023-02-27T02:32:40.516Z,9.719278
2023-02-27T02:33:40.494Z,9.719313
2023-02-27T02:34:40.478Z,9.719173
2023-02-27T02:35:40.468Z,9.719227
2023-02-27T02:36:40.467Z,9.719237
2023-02-27T02:37:40.459Z,9.719296
2023-02-27T02:38:40.429Z,9.719300
2023-02-27T02:39:40.436Z,9.719335
2023-02-27T02:40:40.438Z,9.719260
2023-02-27T02:41:40.434Z,9.719236
2023-02-27T02:42:40.398Z,9.719259
2023-02-27T02:43:40.395Z,9.719287
2023-02-27T02:44:40.384Z,9.719233
2023-02-27T02:45:40.396Z,9.719206
2023-02-27T02:46:40.367Z,9.719204
2023-02-27T02:47:40.360Z,9.719198
2023-02-27T02:48:40.354Z,9.719200
2023-02-27T02:49:40.328Z,9.719217
2023-02-27T02:50:40.331Z,9.719320
2023-02-27T02:51:40.329Z,9.719279
2023-02-27T02:52:40.318Z,9.719231
2023-02-27T02:53:40.291Z,9.719362
2023-02-27T02:54:40.283Z,9.719318
2023-02-27T02:55:40.276Z,9.719400
2023-02-27T02:56:40.258Z,9.719462
2023-02-27T02:57:40.284Z,9.719384
2023-02-27T02:58:40.274Z,9.719125
2023-02-27T02:59:40.238Z,9.719389
2023-02-27T03:00:40.229Z,9.719520
2023-02-27T03:01:40.234Z,9.719460
2023-02-27T03:02:40.222Z,9.719350
2023-02-27T03:03:40.212Z,9.719265
2023-02-27T03:04:40.221Z,9.719301
2023-02-27T03:05:40.185Z,9.719280
2023-02-27T03:06:40.194Z,9.719367
2023-02-27T03:07:40.229Z,9.719338
2023-02-27T03:08:40.165Z,9.719294
2023-02-27T03:09:40.153Z,9.719265
2023-02-27T03:10:40.154Z,9.719303
2023-02-27T03:11:40.121Z,9.719327
2023-02-27T03:12:40.127Z,9.719327
2023-02-27T03:13:40.118Z,9.719327
2023-02-27T03:14:40.120Z,9.719327
2023-02-27T03:15:40.145Z,9.719327
2023-02-27T03:16:40.077Z,9.719327
2023-02-27T03:17:40.072Z,9.719327
2023-02-27T03:18:40.061Z,9.719327
2023-02-27T03:19:40.081Z,9.718748
2023-02-27T03:20:40.053Z,9.718862
2023-02-27T03:21:40.035Z,9.718878
2023-02-27T03:22:40.057Z,9.718968
2023-02-27T03:23:40.019Z,9.718928
2023-02-27T03:24:40.019Z,9.719146
2023-02-27T03:25:39.993Z,9.719156
2023-02-27T03:26:39.992Z,9.719263
2023-02-27T03:27:39.991Z,9.719165
2023-02-27T03:28:39.964Z,9.719131
2023-02-27T03:29:39.976Z,9.719089
2023-02-27T03:30:39.970Z,9.719023
2023-02-27T03:31:39.996Z,9.719113
2023-02-27T03:32:39.918Z,9.719129
2023-02-27T03:33:39.917Z,9.719186
2023-02-27T03:34:39.920Z,9.719173
2023-02-27T03:35:39.902Z,9.719231
2023-02-27T03:36:39.884Z,9.719200
2023-02-27T03:37:39.881Z,9.719043
2023-02-27T03:38:39.872Z,9.719116
2023-02-27T03:39:39.889Z,9.719139
2023-02-27T03:40:39.845Z,9.719181
2023-02-27T03:41:39.845Z,9.719086
2023-02-27T03:42:39.839Z,9.719151
2023-02-27T03:43:39.843Z,9.719139
2023-02-27T03:44:39.828Z,9.719338
2023-02-27T03:45:39.821Z,9.719438
2023-02-27T03:46:39.844Z,9.719466
2023-02-27T03:47:39.810Z,9.719548
2023-02-27T03:48:39.795Z,9.719504
2023-02-27T03:49:39.774Z,9.719480
2023-02-27T03:50:39.764Z,9.719092
2023-02-27T03:51:39.760Z,9.719077
2023-02-27T03:52:39.750Z,9.719393
2023-02-27T03:53:39.749Z,9.719393
2023-02-27T03:54:39.721Z,9.719393
2023-02-27T03:55:39.716Z,9.719393
2023-02-27T03:56:39.709Z,9.719393
2023-02-27T03:57:39.701Z,9.720428
2023-02-27T03:58:39.712Z,9.719318
2023-02-27T03:59:39.677Z,9.719129
2023-02-27T04:00:39.674Z,9.719224
2023-02-27T04:01:39.676Z,9.719094
2023-02-27T04:02:39.648Z,9.719147
2023-02-27T04:03:39.662Z,9.719177
2023-02-27T04:04:39.672Z,9.718949
2023-02-27T04:05:46.298Z,9.718890
2023-02-27T04:06:39.644Z,9.719126
2023-02-27T04:07:39.637Z,9.719072
2023-02-27T04:08:39.603Z,9.719174
2023-02-27T04:09:39.595Z,9.719477
2023-02-27T04:10:39.590Z,9.719346
2023-02-27T04:11:39.584Z,9.719198
2023-02-27T04:12:39.577Z,9.719147
2023-02-27T04:13:39.545Z,9.719216
2023-02-27T04:14:39.552Z,9.719157
2023-02-27T04:15:39.548Z,9.719139
2023-02-27T04:16:39.544Z,9.719111
2023-02-27T04:17:39.505Z,9.719201
2023-02-27T04:18:39.532Z,9.719197
2023-02-27T04:19:39.500Z,9.719234
2023-02-27T04:20:39.517Z,9.719258
2023-02-27T04:21:39.485Z,9.719243
2023-02-27T04:22:39.475Z,9.719135
2023-02-27T04:23:39.478Z,9.719110
2023-02-27T04:24:39.470Z,9.719302
2023-02-27T04:25:39.459Z,9.719103
2023-02-27T04:26:39.420Z,9.719170
2023-02-27T04:27:39.421Z,9.719074
2023-02-27T04:28:39.439Z,9.719147
2023-02-27T04:29:39.408Z,9.718909
2023-02-27T04:30:39.407Z,9.719015
2023-02-27T04:31:39.488Z,9.718936
2023-02-27T04:32:39.479Z,9.719344
2023-02-27T04:33:39.398Z,9.719135
2023-02-27T04:34:39.368Z,9.719317
2023-02-27T04:35:39.353Z,9.718971
2023-02-27T04:36:39.350Z,9.719286
2023-02-27T04:37:40.337Z,9.719582
2023-02-27T04:38:39.325Z,9.719831
2023-02-27T04:39:39.335Z,9.719726
2023-02-27T04:40:39.329Z,9.719468
2023-02-27T04:41:39.308Z,9.719604
2023-02-27T04:42:39.304Z,9.719583
2023-02-27T04:43:39.281Z,9.719626
2023-02-27T04:44:39.301Z,9.719646
2023-02-27T04:45:39.289Z,9.719438
2023-02-27T04:46:39.269Z,9.719602
2023-02-27T04:47:39.254Z,9.719774
2023-02-27T04:48:39.236Z,9.719692
2023-02-27T04:49:39.269Z,9.719636
2023-02-27T04:50:39.241Z,9.719687
2023-02-27T04:51:39.213Z,9.719711
2023-02-27T04:52:39.208Z,9.719682
2023-02-27T04:53:39.191Z,9.719483
2023-02-27T04:54:39.184Z,9.719504
2023-02-27T04:55:39.187Z,9.719664
2023-02-27T04:56:39.165Z,9.719770
2023-02-27T04:57:39.158Z,9.719541
2023-02-27T04:58:39.153Z,9.719465
2023-02-27T04:59:39.178Z,9.719406
2023-02-27T05:00:39.162Z,9.719418
2023-02-27T05:01:39.136Z,9.719425
2023-02-27T05:02:39.229Z,9.719627
2023-02-27T05:03:39.101Z,9.719574
2023-02-27T05:04:39.085Z,9.719541
2023-02-27T05:05:39.089Z,9.719547
2023-02-27T05:06:39.068Z,9.719512
2023-02-27T05:07:39.082Z,9.719433
2023-02-27T05:08:39.060Z,9.719452
2023-02-27T05:09:39.036Z,9.719520
2023-02-27T05:10:39.043Z,9.719517
2023-02-27T05:11:39.048Z,9.719425
2023-02-27T05:12:39.011Z,9.719456
2023-02-27T05:13:39.000Z,9.719414
2023-02-27T05:14:38.992Z,9.719437
2023-02-27T05:15:39.042Z,9.719470
2023-02-27T05:16:39.010Z,9.719421
2023-02-27T05:17:39.030Z,9.719362
2023-02-27T05:18:38.972Z,9.719498
2023-02-27T05:19:38.954Z,9.719401
2023-02-27T05:20:38.963Z,9.719236
2023-02-27T05:21:38.938Z,9.719232
2023-02-27T05:22:38.930Z,9.719274
2023-02-27T05:23:38.919Z,9.719393
2023-02-27T05:24:38.924Z,9.719296
2023-02-27T05:25:38.917Z,9.719238
2023-02-27T05:26:38.879Z,9.719158
2023-02-27T05:27:38.879Z,9.719350
2023-02-27T05:28:38.862Z,9.719405
2023-02-27T05:29:38.883Z,9.719423
2023-02-27T05:30:38.895Z,9.719346
2023-02-27T05:31:38.881Z,9.719296
2023-02-27T05:32:38.967Z,9.719350
2023-02-27T05:33:38.832Z,9.719393
2023-02-27T05:34:38.823Z,9.719300
2023-02-27T05:35:38.835Z,9.719259
2023-02-27T05:36:38.804Z,9.719210
2023-02-27T05:37:38.798Z,9.719181
2023-02-27T05:38:38.788Z,9.719293
2023-02-27T05:39:38.766Z,9.719341
2023-02-27T05:40:38.761Z,9.719048
2023-02-27T05:41:38.756Z,9.719250
2023-02-27T05:42:38.743Z,9.719449
2023-02-27T05:43:38.724Z,9.719429
2023-02-27T05:44:38.730Z,9.719225
2023-02-27T05:45:38.741Z,9.719482
2023-02-27T05:46:38.715Z,9.719432
2023-02-27T05:47:38.689Z,9.719457
2023-02-27T05:48:38.675Z,9.719476
2023-02-27T05:49:38.677Z,9.719404
2023-02-27T05:50:38.673Z,9.719312
2023-02-27T05:51:38.643Z,9.719411
2023-02-27T05:52:38.632Z,9.719481
2023-02-27T05:53:38.634Z,9.719307
2023-02-27T05:54:38.614Z,9.719348
2023-02-27T05:55:38.622Z,9.719484
2023-02-27T05:56:38.625Z,9.719304
2023-02-27T05:57:38.590Z,9.719223
2023-02-27T05:58:38.588Z,9.719214
2023-02-27T05:59:38.585Z,9.719188
2023-02-27T06:00:38.562Z,9.719183
2023-02-27T06:01:38.582Z,9.719205
2023-02-27T06:02:38.546Z,9.719142
2023-02-27T06:03:38.608Z,9.719133
2023-02-27T06:04:38.528Z,9.719152
2023-02-27T06:05:38.518Z,9.719168
2023-02-27T06:06:38.508Z,9.719178
2023-02-27T06:07:38.523Z,9.719168
2023-02-27T06:08:38.506Z,9.719126
2023-02-27T06:09:38.490Z,9.719195
2023-02-27T06:10:38.474Z,9.719140
2023-02-27T06:11:38.461Z,9.719193
2023-02-27T06:12:38.473Z,9.719184
2023-02-27T06:13:40.850Z,9.719172
2023-02-27T06:14:38.447Z,9.719151
2023-02-27T06:15:39.454Z,9.719166
2023-02-27T06:16:38.474Z,9.719183
2023-02-27T06:17:38.415Z,9.719212
2023-02-27T06:18:38.402Z,9.719238
2023-02-27T06:19:38.412Z,9.719221
2023-02-27T06:20:38.389Z,9.719215
2023-02-27T06:21:38.386Z,9.719226
2023-02-27T06:22:38.509Z,9.719228
2023-02-27T06:23:38.377Z,9.719156
2023-02-27T06:24:38.350Z,9.719170
2023-02-27T06:25:38.338Z,9.719152
2023-02-27T06:26:38.360Z,9.719159
2023-02-27T06:27:38.330Z,9.719225
2023-02-27T06:28:38.337Z,9.719101
2023-02-27T06:29:38.301Z,9.719183
2023-02-27T06:30:38.318Z,9.719196
2023-02-27T06:31:38.310Z,9.719196
2023-02-27T06:32:38.279Z,9.719216
2023-02-27T06:33:38.268Z,9.719168
2023-02-27T06:34:38.247Z,9.719152
2023-02-27T06:35:38.292Z,9.719135
2023-02-27T06:36:38.251Z,9.719139
2023-02-27T06:37:38.207Z,9.719179
2023-02-27T06:38:38.213Z,9.719261
2023-02-27T06:39:38.204Z,9.719261
2023-02-27T06:40:38.193Z,9.719208
2023-02-27T06:41:38.208Z,9.719202
2023-02-27T06:42:38.172Z,9.719232
2023-02-27T06:43:38.160Z,9.719279
2023-02-27T06:44:38.148Z,9.719213
2023-02-27T06:45:38.147Z,9.719220
2023-02-27T06:46:38.241Z,9.719209
2023-02-27T06:47:38.145Z,9.719301
2023-02-27T06:48:38.120Z,9.719209
2023-02-27T06:49:38.096Z,9.719241
2023-02-27T06:50:38.096Z,9.719163
2023-02-27T06:51:38.108Z,9.719194
2023-02-27T06:52:38.094Z,9.719100
2023-02-27T06:53:38.074Z,9.719084
2023-02-27T06:54:38.065Z,9.719029
2023-02-27T06:55:38.062Z,9.719356
2023-02-27T06:56:38.056Z,9.719472
2023-02-27T06:57:38.096Z,9.719392
2023-02-27T06:58:38.025Z,9.719421
2023-02-27T06:59:38.019Z,9.719465
2023-02-27T07:00:38.046Z,9.719335
2023-02-27T07:01:38.095Z,9.719313
2023-02-27T07:02:38.019Z,9.719280
2023-02-27T07:03:37.988Z,9.719324
2023-02-27T07:04:38.031Z,9.719360
2023-02-27T07:05:37.967Z,9.719371
2023-02-27T07:07:34.420Z,9.719260
2023-02-27T07:07:39.207Z,9.719246
2023-02-27T07:08:38.010Z,9.719401
2023-02-27T07:09:39.085Z,9.719363
2023-02-27T07:10:37.932Z,9.719240
2023-02-27T07:11:37.901Z,9.719321
2023-02-27T07:12:37.881Z,9.719331
2023-02-27T07:13:37.883Z,9.719120
2023-02-27T07:14:37.878Z,9.719291
2023-02-27T07:15:37.908Z,9.719297
2023-02-27T07:16:37.857Z,9.719351
2023-02-27T07:17:37.857Z,9.719371
2023-02-27T07:18:37.872Z,9.719282
2023-02-27T07:19:37.845Z,9.719304
2023-02-27T07:20:37.838Z,9.719384
2023-02-27T07:21:37.809Z,9.719339
2023-02-27T07:22:37.831Z,9.719444
2023-02-27T07:23:37.788Z,9.719281
2023-02-27T07:24:37.789Z,9.719316
2023-02-27T07:25:37.776Z,9.719332
2023-02-27T07:26:37.765Z,9.719563
2023-02-27T07:27:37.781Z,9.719480
2023-02-27T07:28:37.827Z,9.719405
2023-02-27T07:29:37.731Z,9.719321
2023-02-27T07:30:37.731Z,9.719268
2023-02-27T07:31:37.770Z,9.719292
2023-02-27T07:32:37.725Z,9.719272
2023-02-27T07:33:37.717Z,9.719289
2023-02-27T07:34:37.692Z,9.719268
2023-02-27T07:35:37.728Z,9.719194
2023-02-27T07:36:37.672Z,9.719070
2023-02-27T07:37:37.684Z,9.719137
2023-02-27T07:38:37.655Z,9.719156
2023-02-27T07:39:37.648Z,9.719255
2023-02-27T07:40:37.631Z,9.719258
2023-02-27T07:41:37.633Z,9.718977
2023-02-27T07:42:37.628Z,9.718812
2023-02-27T07:43:37.617Z,9.718632
2023-02-27T07:44:37.620Z,9.718994
2023-02-27T07:45:37.587Z,9.719049
2023-02-27T07:46:37.654Z,9.719061
2023-02-27T07:47:37.560Z,9.719019
2023-02-27T07:48:37.565Z,9.719046
2023-02-27T07:49:37.569Z,9.719047
2023-02-27T07:50:37.548Z,9.719057
2023-02-27T07:51:37.543Z,9.719015
2023-02-27T07:52:37.525Z,9.719020
2023-02-27T07:53:37.517Z,9.718992
2023-02-27T07:54:37.582Z,9.718978
2023-02-27T07:55:37.507Z,9.718988
2023-02-27T07:56:37.514Z,9.718943
2023-02-27T07:57:37.488Z,9.718925
2023-02-27T07:58:37.474Z,9.718991
2023-02-27T07:59:37.490Z,9.718979
2023-02-27T08:00:37.478Z,9.718971
2023-02-27T08:01:37.447Z,9.719073
2023-02-27T08:02:37.454Z,9.719020
2023-02-27T08:03:37.428Z,9.718995
2023-02-27T08:04:37.447Z,9.718839
2023-02-27T08:05:37.464Z,9.718936
2023-02-27T08:06:37.419Z,9.718967
2023-02-27T08:07:37.384Z,9.718795
2023-02-27T08:08:37.397Z,9.719054
2023-02-27T08:09:37.362Z,9.719106
2023-02-27T08:10:37.370Z,9.719045
2023-02-27T08:11:37.372Z,9.718987
2023-02-27T08:12:37.351Z,9.719156
2023-02-27T08:14:03.487Z,9.719093
2023-02-27T08:14:39.318Z,9.719072
2023-02-27T08:15:37.335Z,9.718928
2023-02-27T08:16:37.471Z,9.719188
2023-02-27T08:17:37.326Z,9.719010
2023-02-27T08:18:37.288Z,9.718925
2023-02-27T08:19:37.270Z,9.718914
2023-02-27T08:20:37.270Z,9.718759
2023-02-27T08:21:37.299Z,9.719233
2023-02-27T08:22:37.249Z,9.719226
2023-02-27T08:23:37.248Z,9.719059
2023-02-27T08:24:37.239Z,9.719199
2023-02-27T08:25:37.236Z,9.718939
2023-02-27T08:26:37.193Z,9.719145
2023-02-27T08:27:37.195Z,9.719224
2023-02-27T08:28:37.189Z,9.719362
2023-02-27T08:29:37.206Z,9.719217
2023-02-27T08:30:37.166Z,9.719074
2023-02-27T08:31:37.203Z,9.719311
2023-02-27T08:32:37.147Z,9.719096
2023-02-27T08:33:37.143Z,9.719017
2023-02-27T08:34:37.157Z,9.719222
2023-02-27T08:35:37.132Z,9.719215
2023-02-27T08:36:37.109Z,9.719142
2023-02-27T08:37:37.084Z,9.719249
2023-02-27T08:38:37.099Z,9.719240
2023-02-27T08:39:37.078Z,9.719112
2023-02-27T08:40:37.090Z,9.719090
2023-02-27T08:41:37.082Z,9.718961
2023-02-27T08:42:37.061Z,9.718986
2023-02-27T08:43:37.033Z,9.719056
2023-02-27T08:44:37.033Z,9.719072
2023-02-27T08:45:37.053Z,9.719138
2023-02-27T08:46:37.013Z,9.719135
2023-02-27T08:47:36.998Z,9.718912
2023-02-27T08:48:36.977Z,9.719074
2023-02-27T08:49:36.974Z,9.718975
2023-02-27T08:50:36.963Z,9.719105
2023-02-27T08:51:36.968Z,9.719153
2023-02-27T08:52:36.950Z,9.719096
2023-02-27T08:53:36.934Z,9.719086
2023-02-27T08:54:36.962Z,9.719119
2023-02-27T08:55:36.910Z,9.719171
2023-02-27T08:56:36.939Z,9.719145
2023-02-27T08:57:36.899Z,9.719069
2023-02-27T08:58:36.918Z,9.719013
2023-02-27T08:59:36.925Z,9.719085
2023-02-27T09:00:36.877Z,9.719126
2023-02-27T09:01:36.884Z,9.718906
2023-02-27T09:02:36.914Z,9.718968
2023-02-27T09:03:36.832Z,9.719021
2023-02-27T09:04:36.840Z,9.719086
2023-02-27T09:05:36.821Z,9.719186
2023-02-27T09:06:36.831Z,9.719179
2023-02-27T09:07:36.813Z,9.719124
2023-02-27T09:08:36.784Z,9.719177
2023-02-27T09:09:36.798Z,9.719183
2023-02-27T09:10:36.799Z,9.719156
2023-02-27T09:11:38.663Z,9.719079
2023-02-27T09:12:36.745Z,9.719125
2023-02-27T09:13:36.754Z,9.719180
2023-02-27T09:14:36.768Z,9.719249
2023-02-27T09:15:36.734Z,9.719247
2023-02-27T09:16:36.786Z,9.719205
2023-02-27T09:17:36.688Z,9.719095
2023-02-27T09:18:36.688Z,9.719090
2023-02-27T09:19:36.703Z,9.719140
2023-02-27T09:20:36.683Z,9.719052
2023-02-27T09:21:36.705Z,9.719276
2023-02-27T09:22:36.655Z,9.719293
2023-02-27T09:23:36.669Z,9.719223
2023-02-27T09:24:36.629Z,9.719211
2023-02-27T09:25:36.628Z,9.719285
2023-02-27T09:26:45.642Z,9.719355
2023-02-27T09:27:38.613Z,9.719270
2023-02-27T09:28:36.599Z,9.719347
2023-02-27T09:29:36.618Z,9.719315
2023-02-27T09:30:36.589Z,9.719306
2023-02-27T09:31:36.610Z,9.719401
2023-02-27T09:32:36.619Z,9.719403
2023-02-27T09:33:36.545Z,9.719285
2023-02-27T09:34:36.600Z,9.719360
2023-02-27T09:35:36.561Z,9.719323
2023-02-27T09:36:36.527Z,9.719253
2023-02-27T09:37:36.517Z,9.719339
2023-02-27T09:38:36.506Z,9.719416
2023-02-27T09:39:36.510Z,9.719438
2023-02-27T09:40:36.497Z,9.719257
2023-02-27T09:41:36.487Z,9.719267
2023-02-27T09:42:36.504Z,9.719293
2023-02-27T09:43:36.506Z,9.719362
2023-02-27T09:44:45.720Z,9.719476
2023-02-27T09:45:37.508Z,9.719539
2023-02-27T09:46:36.437Z,9.719420
2023-02-27T09:47:36.446Z,9.719374
2023-02-27T09:48:36.411Z,9.719449
2023-02-27T09:49:36.410Z,9.719426
2023-02-27T09:50:36.400Z,9.719372
2023-02-27T09:51:36.390Z,9.719432
2023-02-27T09:52:36.389Z,9.719320
2023-02-27T09:53:36.363Z,9.719266
2023-02-27T09:54:36.346Z,9.719079
2023-02-27T09:55:36.343Z,9.719076
2023-02-27T09:56:36.346Z,9.719200
2023-02-27T09:57:36.309Z,9.719311
2023-02-27T09:58:36.322Z,9.719398
2023-02-27T09:59:36.308Z,9.719441
2023-02-27T10:00:36.306Z,9.719534
2023-02-27T10:01:36.283Z,9.719234
2023-02-27T10:02:36.322Z,9.719240
2023-02-27T10:03:36.280Z,9.719426
2023-02-27T10:04:36.297Z,9.719339
2023-02-27T10:05:37.245Z,9.719390
2023-02-27T10:06:36.241Z,9.719188
2023-02-27T10:08:08.135Z,9.719300
2023-02-27T10:08:36.238Z,9.719472
2023-02-27T10:09:36.266Z,9.719388
2023-02-27T10:10:36.215Z,9.719769
2023-02-27T10:11:36.195Z,9.719909
2023-02-27T10:12:36.186Z,9.719678
2023-02-27T10:13:36.186Z,9.719301
2023-02-27T10:14:36.164Z,9.719124
2023-02-27T10:15:36.182Z,9.719347
2023-02-27T10:16:36.203Z,9.719390
2023-02-27T10:17:36.174Z,9.719599
2023-02-27T10:18:36.143Z,9.719673
2023-02-27T10:19:36.139Z,9.719404
2023-02-27T10:20:36.111Z,9.719762
2023-02-27T10:21:36.109Z,9.719810
2023-02-27T10:22:36.106Z,9.719810
2023-02-27T10:23:36.089Z,9.719810
2023-02-27T10:24:36.093Z,9.719810
2023-02-27T10:25:36.081Z,9.719810
2023-02-27T10:26:36.056Z,9.719810
2023-02-27T10:27:36.059Z,9.719810
2023-02-27T10:28:36.034Z,9.719810
2023-02-27T10:29:36.042Z,9.719810
2023-02-27T10:30:36.213Z,9.719810
2023-02-27T10:31:36.139Z,9.719455
2023-02-27T10:32:36.009Z,9.719521
2023-02-27T10:33:35.991Z,9.719237
2023-02-27T10:34:35.968Z,9.719218
2023-02-27T10:35:36.066Z,9.719313
2023-02-27T10:36:35.997Z,9.719236
2023-02-27T10:37:35.969Z,9.719197
2023-02-27T10:38:35.967Z,9.719177
2023-02-27T10:39:35.967Z,9.719140
2023-02-27T10:40:35.945Z,9.719092
2023-02-27T10:41:35.924Z,9.719332
2023-02-27T10:42:35.927Z,9.719294
2023-02-27T10:43:35.899Z,9.719494
2023-02-27T10:44:35.875Z,9.719284
2023-02-27T10:45:37.894Z,9.719189
2023-02-27T10:46:35.960Z,9.719149
2023-02-27T10:47:35.862Z,9.719148
2023-02-27T10:48:35.857Z,9.719114
2023-02-27T10:49:35.841Z,9.719086
2023-02-27T10:50:35.831Z,9.719084
2023-02-27T10:51:35.808Z,9.719139
2023-02-27T10:52:35.805Z,9.719059
2023-02-27T10:53:35.824Z,9.719061
2023-02-27T10:54:35.780Z,9.719076
2023-02-27T10:55:35.790Z,9.719033
2023-02-27T10:56:35.793Z,9.719040
2023-02-27T10:57:35.753Z,9.719031
2023-02-27T10:58:35.748Z,9.719009
2023-02-27T10:59:36.736Z,9.718996
2023-02-27T11:00:35.770Z,9.718921
2023-02-27T11:01:35.765Z,9.718980
2023-02-27T11:02:35.726Z,9.718960
2023-02-27T11:03:35.728Z,9.718929
2023-02-27T11:04:35.776Z,9.718933
2023-02-27T11:05:35.677Z,9.718953
2023-02-27T11:06:35.668Z,9.718863
2023-02-27T11:07:35.665Z,9.718935
2023-02-27T11:08:35.660Z,9.718897
2023-02-27T11:09:35.662Z,9.718958
2023-02-27T11:10:35.634Z,9.719005
2023-02-27T11:11:35.603Z,9.719022
2023-02-27T11:12:35.624Z,9.719139
2023-02-27T11:13:35.594Z,9.718998
2023-02-27T11:14:35.612Z,9.719058
2023-02-27T11:15:35.647Z,9.718947
2023-02-27T11:16:35.564Z,9.718986
2023-02-27T11:17:35.580Z,9.718964
2023-02-27T11:18:35.575Z,9.718880
2023-02-27T11:19:35.603Z,9.718800
2023-02-27T11:20:35.543Z,9.718872
2023-02-27T11:21:35.545Z,9.718894
2023-02-27T11:22:35.536Z,9.718966
2023-02-27T11:23:35.518Z,9.718926
2023-02-27T11:24:35.503Z,9.718919
2023-02-27T11:25:35.479Z,9.718872
2023-02-27T11:26:35.546Z,9.718949
2023-02-27T11:27:35.477Z,9.718907
2023-02-27T11:28:35.459Z,9.718835
2023-02-27T11:29:35.445Z,9.718956
2023-02-27T11:30:35.433Z,9.718881
2023-02-27T11:31:35.484Z,9.718927
2023-02-27T11:32:35.416Z,9.718962
2023-02-27T11:33:35.415Z,9.718970
2023-02-27T11:34:35.414Z,9.718972
2023-02-27T11:35:35.410Z,9.718996
2023-02-27T11:36:35.388Z,9.719085
2023-02-27T11:37:35.399Z,9.719070
2023-02-27T11:38:35.383Z,9.719147
2023-02-27T11:39:35.349Z,9.719024
2023-02-27T11:40:35.358Z,9.718977
2023-02-27T11:41:35.322Z,9.719079
2023-02-27T11:42:35.316Z,9.719011
2023-02-27T11:43:35.342Z,9.719009
2023-02-27T11:44:50.843Z,9.718950